Time;durP1;ratioP1;P1;durP2;ratioP2;P2;SDS_P1;SDS_P2;PMS_P1;PMS_P2;Temp;Humidity;BMP_temperature;BMP_pressure;BME280_temperature;BME280_humidity;BME280_pressure;Samples;Min_cycle;Max_cycle;Signal;HPM_P1;HPM_P2
2023/11/13 00:01:20;;;;;;;3.92;2.47;;;7.70;78.10;;;;;;5066941;28;20033;-68
2023/11/13 00:03:46;;;;;;;4.28;2.65;;;7.80;78.20;;;;;;5058610;28;20055;-68
2023/11/13 00:06:13;;;;;;;4.45;2.38;;;7.70;78.10;;;;;;5061291;28;20404;-63
2023/11/13 00:08:39;;;;;;;3.83;2.33;;;7.70;78.30;;;;;;5056302;28;20540;-62
2023/11/13 00:11:05;;;;;;;3.50;2.22;;;7.70;78.30;;;;;;5062770;28;20075;-68
2023/11/13 00:13:31;;;;;;;4.82;2.72;;;7.70;78.20;;;;;;5046125;28;20488;-63
2023/11/13 00:15:57;;;;;;;4.05;2.42;;;7.60;78.10;;;;;;5046514;28;20088;-66
2023/11/13 00:18:23;;;;;;;5.22;2.72;;;7.60;78.10;;;;;;5063338;28;20044;-64
2023/11/13 00:20:49;;;;;;;9.55;2.75;;;7.60;78.10;;;;;;5066361;28;20025;-62
2023/11/13 00:23:15;;;;;;;4.10;2.70;;;7.60;78.00;;;;;;5042098;28;20381;-62
2023/11/13 00:25:41;;;;;;;6.18;2.63;;;7.50;77.90;;;;;;5059615;28;20037;-69
2023/11/13 00:28:06;;;;;;;3.78;2.33;;;7.50;78.00;;;;;;5064383;28;20503;-67
2023/11/13 00:30:32;;;;;;;6.47;2.53;;;7.50;78.10;;;;;;5063979;28;20082;-67
2023/11/13 00:32:58;;;;;;;3.33;2.10;;;7.50;78.00;;;;;;5066837;28;20025;-68
2023/11/13 00:35:23;;;;;;;5.07;2.50;;;7.40;78.40;;;;;;5066309;28;20033;-67
2023/11/13 00:37:49;;;;;;;6.20;2.50;;;7.40;77.80;;;;;;5064934;28;20021;-67
2023/11/13 00:40:16;;;;;;;3.78;2.58;;;7.40;77.80;;;;;;5068396;28;20477;-67
2023/11/13 00:42:41;;;;;;;5.78;2.25;;;7.40;77.90;;;;;;5065968;28;20033;-66
2023/11/13 00:45:08;;;;;;;5.72;2.90;;;7.30;77.80;;;;;;5070704;28;20036;-67
2023/11/13 00:47:33;;;;;;;2.28;2.08;;;7.30;77.70;;;;;;5064694;28;20095;-67
2023/11/13 00:49:59;;;;;;;4.45;2.72;;;7.30;77.70;;;;;;5061412;28;20051;-69
2023/11/13 00:52:25;;;;;;;5.45;2.55;;;7.30;77.70;;;;;;5062048;28;20531;-67
2023/11/13 00:54:52;;;;;;;2.67;2.38;;;7.30;77.80;;;;;;5051103;28;20532;-67
2023/11/13 00:57:18;;;;;;;2.70;2.17;;;7.30;77.80;;;;;;5052933;28;20060;-62
2023/11/13 00:59:43;;;;;;;3.08;2.13;;;7.30;77.80;;;;;;5031690;28;20508;-62
2023/11/13 01:02:09;;;;;;;2.75;2.03;;;7.20;77.80;;;;;;5063431;28;20029;-61
2023/11/13 01:04:35;;;;;;;3.80;2.72;;;7.20;77.90;;;;;;5023654;28;1171069;-62
2023/11/13 01:07:01;;;;;;;3.13;1.98;;;7.20;78.00;;;;;;5056888;28;20104;-62
2023/11/13 01:09:27;;;;;;;3.95;2.88;;;7.20;78.10;;;;;;5065313;28;20125;-64
2023/11/13 01:11:52;;;;;;;3.35;2.42;;;7.20;78.00;;;;;;5063776;28;20025;-62
2023/11/13 01:14:19;;;;;;;3.53;2.35;;;7.20;78.10;;;;;;5065013;28;20043;-66
2023/11/13 01:16:45;;;;;;;5.65;2.80;;;7.20;78.20;;;;;;5063107;28;20345;-67
2023/11/13 01:19:11;;;;;;;6.35;2.80;;;7.20;78.20;;;;;;5064195;28;20121;-66
2023/11/13 01:21:37;;;;;;;4.30;3.22;;;7.10;78.20;;;;;;5063391;28;20090;-66
2023/11/13 01:24:03;;;;;;;4.20;2.45;;;7.10;78.40;;;;;;5045209;28;20029;-67
2023/11/13 01:26:29;;;;;;;4.75;2.78;;;7.10;78.40;;;;;;5065080;28;20070;-67
2023/11/13 01:28:54;;;;;;;5.55;2.80;;;7.10;78.30;;;;;;5066666;28;20052;-67
2023/11/13 01:31:20;;;;;;;5.95;2.45;;;7.10;78.40;;;;;;5058245;28;20711;-67
2023/11/13 01:33:46;;;;;;;2.92;2.17;;;7.10;78.40;;;;;;5058537;28;20032;-67
2023/11/13 01:36:11;;;;;;;4.65;2.15;;;7.10;78.40;;;;;;5066032;28;20036;-67
2023/11/13 01:38:37;;;;;;;3.33;2.30;;;7.10;78.30;;;;;;5059355;28;20535;-67
2023/11/13 01:41:03;;;;;;;4.85;2.97;;;7.10;78.30;;;;;;5062688;28;20032;-69
2023/11/13 01:43:29;;;;;;;3.88;2.80;;;7.10;78.30;;;;;;5060815;28;20120;-69
2023/11/13 01:45:58;;;;;;;3.30;2.45;;;7.10;78.40;;;;;;5049186;28;20064;-68
2023/11/13 01:48:25;;;;;;;2.92;2.20;;;7.10;78.40;;;;;;5064454;28;20035;-69
2023/11/13 01:50:51;;;;;;;3.85;2.63;;;7.10;78.30;;;;;;5067290;28;20506;-66
2023/11/13 01:53:22;;;;;;;6.10;3.08;;;7.10;78.30;;;;;;5040174;28;20461;-67
2023/11/13 01:55:51;;;;;;;4.82;1.98;;;7.10;78.40;;;;;;5066827;28;20174;-67
2023/11/13 01:58:18;;;;;;;4.18;2.42;;;7.10;78.40;;;;;;5070411;28;20021;-67
2023/11/13 02:00:46;;;;;;;6.55;2.90;;;7.10;78.30;;;;;;5044184;28;20028;-61
2023/11/13 02:03:14;;;;;;;4.43;2.83;;;7.10;78.30;;;;;;5050186;28;20033;-62
2023/11/13 02:05:40;;;;;;;4.70;2.72;;;7.10;78.40;;;;;;5063546;28;20378;-61
2023/11/13 02:08:07;;;;;;;9.43;2.97;;;7.10;78.40;;;;;;5068793;28;20025;-62
2023/11/13 02:10:35;;;;;;;4.80;2.33;;;7.20;78.60;;;;;;5066163;28;20060;-62
2023/11/13 02:13:05;;;;;;;3.33;2.28;;;7.20;78.70;;;;;;5069514;28;20032;-61
2023/11/13 02:15:31;;;;;;;4.88;2.83;;;7.20;78.70;;;;;;5062423;28;20130;-66
2023/11/13 02:18:04;;;;;;;3.17;2.08;;;7.20;78.70;;;;;;5036502;28;20485;-66
2023/11/13 02:20:31;;;;;;;4.28;2.75;;;7.20;78.70;;;;;;5066936;28;20055;-67
2023/11/13 02:22:58;;;;;;;3.00;2.28;;;7.30;78.80;;;;;;5069078;28;20034;-67
2023/11/13 02:25:25;;;;;;;3.58;2.70;;;7.30;78.90;;;;;;5065537;28;20071;-66
2023/11/13 02:27:55;;;;;;;3.70;2.33;;;7.30;78.90;;;;;;5065598;28;20032;-67
2023/11/13 02:30:21;;;;;;;3.42;1.95;;;7.40;78.90;;;;;;5055494;28;20516;-67
2023/11/13 02:32:48;;;;;;;5.40;2.22;;;7.40;78.80;;;;;;5029106;28;20059;-67
2023/11/13 02:35:15;;;;;;;4.75;3.10;;;7.40;78.90;;;;;;5050062;28;20035;-67
2023/11/13 02:37:42;;;;;;;3.97;2.65;;;7.40;79.00;;;;;;5060981;28;20052;-67
2023/11/13 02:40:12;;;;;;;4.82;3.33;;;7.40;79.10;;;;;;5052425;28;20119;-67
2023/11/13 02:42:41;;;;;;;4.75;3.05;;;7.50;79.30;;;;;;5050190;28;20032;-67
2023/11/13 02:45:08;;;;;;;3.45;2.08;;;7.50;79.40;;;;;;5062523;28;20041;-62
2023/11/13 02:47:34;;;;;;;3.50;2.72;;;7.50;79.40;;;;;;5042049;28;20025;-61
2023/11/13 02:50:01;;;;;;;4.25;2.90;;;7.50;79.40;;;;;;5070044;28;20031;-61
2023/11/13 02:52:26;;;;;;;4.28;2.95;;;7.60;79.60;;;;;;5063544;28;20503;-61
2023/11/13 02:54:52;;;;;;;3.88;2.72;;;7.60;79.50;;;;;;5062909;28;20119;-62
2023/11/13 02:57:18;;;;;;;5.60;2.65;;;7.60;79.60;;;;;;5049414;28;20098;-61
2023/11/13 02:59:44;;;;;;;3.88;2.63;;;7.60;79.70;;;;;;5066948;28;20377;-67
2023/11/13 03:02:10;;;;;;;3.80;2.70;;;7.60;79.80;;;;;;5046467;28;20021;-67
2023/11/13 03:04:36;;;;;;;3.88;2.47;;;7.60;79.70;;;;;;5061282;28;20209;-67
2023/11/13 03:07:01;;;;;;;3.85;3.03;;;7.60;79.80;;;;;;5058144;28;20036;-67
2023/11/13 03:09:27;;;;;;;4.05;3.03;;;7.60;79.80;;;;;;5069335;28;20404;-67
2023/11/13 03:11:53;;;;;;;3.63;2.47;;;7.60;79.80;;;;;;5065916;28;20115;-67
2023/11/13 03:14:19;;;;;;;5.30;2.78;;;7.60;79.90;;;;;;5059755;28;20028;-67
2023/11/13 03:16:45;;;;;;;3.03;2.20;;;7.70;79.90;;;;;;5067672;28;20032;-67
2023/11/13 03:19:10;;;;;;;5.25;2.72;;;7.70;79.90;;;;;;5066794;28;20035;-67
2023/11/13 03:21:36;;;;;;;3.90;2.33;;;7.70;79.90;;;;;;5062165;28;20029;-67
2023/11/13 03:24:02;;;;;;;2.17;1.98;;;7.70;80.00;;;;;;5038604;28;20087;-67
2023/11/13 03:26:29;;;;;;;5.75;2.50;;;7.70;80.00;;;;;;5058596;28;20075;-67
2023/11/13 03:28:55;;;;;;;6.82;2.40;;;7.70;80.00;;;;;;5056031;28;20039;-67
2023/11/13 03:31:22;;;;;;;2.25;1.90;;;7.70;80.00;;;;;;5062467;28;20048;-67
2023/11/13 03:33:47;;;;;;;3.08;2.30;;;7.70;80.00;;;;;;5043953;28;20029;-67
2023/11/13 03:36:13;;;;;;;5.28;3.13;;;7.70;80.00;;;;;;5065200;28;20033;-67
2023/11/13 03:38:39;;;;;;;3.40;2.50;;;7.70;80.00;;;;;;5066074;28;20036;-67
2023/11/13 03:41:05;;;;;;;2.83;2.00;;;7.70;80.10;;;;;;5066487;28;20036;-67
2023/11/13 03:43:32;;;;;;;4.82;2.40;;;7.80;80.20;;;;;;5041354;28;20032;-62
2023/11/13 03:45:58;;;;;;;2.95;2.25;;;7.80;80.20;;;;;;5067311;28;20028;-63
2023/11/13 03:48:24;;;;;;;3.65;2.25;;;7.80;80.20;;;;;;5068115;28;20071;-67
2023/11/13 03:50:50;;;;;;;3.50;2.30;;;7.80;80.20;;;;;;5057023;28;20474;-67
2023/11/13 03:53:15;;;;;;;4.65;2.92;;;7.80;80.30;;;;;;5059247;28;20059;-67
2023/11/13 03:55:41;;;;;;;7.57;2.42;;;7.80;80.60;;;;;;5038377;28;20059;-62
2023/11/13 03:58:08;;;;;;;3.83;2.83;;;7.80;80.90;;;;;;5059030;28;20058;-61
2023/11/13 04:00:35;;;;;;;3.72;2.70;;;7.80;81.00;;;;;;5057006;28;20024;-61
2023/11/13 04:03:01;;;;;;;4.03;2.47;;;7.80;81.10;;;;;;5057989;28;20394;-61
2023/11/13 04:05:28;;;;;;;3.55;2.25;;;7.80;81.10;;;;;;5065222;28;20098;-62
2023/11/13 04:07:54;;;;;;;2.25;2.03;;;7.90;81.00;;;;;;5064569;28;20055;-62
2023/11/13 04:10:20;;;;;;;6.38;2.67;;;7.90;81.00;;;;;;5063110;28;20112;-67
2023/11/13 04:12:47;;;;;;;7.03;3.00;;;8.00;81.00;;;;;;5055780;28;20039;-67
2023/11/13 04:15:13;;;;;;;2.97;2.28;;;8.00;81.10;;;;;;5066094;28;20032;-67
2023/11/13 04:17:40;;;;;;;8.25;2.90;;;8.00;81.10;;;;;;5060381;28;20021;-67
2023/11/13 04:20:07;;;;;;;3.42;2.63;;;8.00;81.30;;;;;;5054247;28;20032;-67
2023/11/13 04:22:36;;;;;;;3.92;2.40;;;8.00;81.30;;;;;;5033728;28;20441;-67
2023/11/13 04:25:02;;;;;;;3.67;2.50;;;8.00;81.40;;;;;;5064294;28;20120;-67
2023/11/13 04:27:29;;;;;;;6.03;2.58;;;8.10;81.50;;;;;;5068390;28;20028;-67
2023/11/13 04:29:56;;;;;;;2.95;1.75;;;8.10;81.50;;;;;;5062917;28;20036;-62
2023/11/13 04:32:23;;;;;;;3.72;2.33;;;8.10;81.60;;;;;;5064523;28;20025;-67
2023/11/13 04:34:49;;;;;;;4.82;2.30;;;8.20;81.60;;;;;;5062798;28;20547;-67
2023/11/13 04:37:15;;;;;;;2.30;1.80;;;8.20;81.60;;;;;;5045289;28;20373;-67
2023/11/13 04:39:41;;;;;;;3.92;2.17;;;8.20;81.60;;;;;;5059858;28;20044;-67
2023/11/13 04:42:07;;;;;;;4.57;2.97;;;8.20;81.70;;;;;;5059643;28;20033;-67
2023/11/13 04:44:32;;;;;;;3.72;2.65;;;8.20;81.70;;;;;;5059914;28;20025;-67
2023/11/13 04:46:58;;;;;;;8.13;2.97;;;8.30;81.80;;;;;;5063949;28;20115;-66
2023/11/13 04:49:24;;;;;;;3.35;2.38;;;8.30;81.90;;;;;;5054771;28;20112;-67
2023/11/13 04:51:50;;;;;;;3.78;1.90;;;8.30;82.00;;;;;;5059389;28;20024;-67
2023/11/13 04:54:17;;;;;;;2.47;2.00;;;8.30;82.00;;;;;;5065307;28;20024;-67
2023/11/13 04:56:43;;;;;;;4.45;2.50;;;8.30;82.10;;;;;;5067651;28;20024;-67
2023/11/13 04:59:11;;;;;;;2.75;1.83;;;8.40;82.20;;;;;;5058260;28;20547;-67
2023/11/13 05:01:39;;;;;;;3.60;2.22;;;8.40;82.30;;;;;;5062844;28;20043;-67
2023/11/13 05:04:08;;;;;;;3.00;2.33;;;8.40;82.30;;;;;;5049319;28;20064;-67
2023/11/13 05:06:35;;;;;;;4.78;2.15;;;8.40;82.40;;;;;;5058965;28;20024;-67
2023/11/13 05:09:03;;;;;;;6.05;2.95;;;8.40;82.40;;;;;;5066267;28;20493;-67
2023/11/13 05:11:29;;;;;;;2.35;1.58;;;8.50;82.40;;;;;;5063894;28;20026;-67
2023/11/13 05:13:54;;;;;;;3.08;1.98;;;8.50;82.30;;;;;;5060603;28;20040;-67
2023/11/13 05:16:23;;;;;;;4.07;2.42;;;8.50;82.30;;;;;;5058308;28;20090;-67
2023/11/13 05:18:51;;;;;;;3.95;2.40;;;8.50;82.20;;;;;;5060251;28;20020;-67
2023/11/13 05:21:18;;;;;;;4.03;2.58;;;8.50;82.20;;;;;;5059406;28;20032;-67
2023/11/13 05:23:44;;;;;;;2.47;1.85;;;8.60;82.40;;;;;;5045175;28;20380;-67
2023/11/13 05:26:10;;;;;;;4.28;2.25;;;8.60;82.50;;;;;;5059320;28;20459;-67
2023/11/13 05:28:36;;;;;;;13.00;3.40;;;8.50;82.50;;;;;;5060036;28;20028;-67
2023/11/13 05:31:02;;;;;;;3.42;2.30;;;8.60;82.60;;;;;;5062294;28;20017;-67
2023/11/13 05:33:28;;;;;;;4.28;2.38;;;8.50;82.50;;;;;;5049210;28;20055;-67
2023/11/13 05:35:54;;;;;;;2.50;1.95;;;8.60;82.60;;;;;;5047134;28;20091;-67
2023/11/13 05:38:20;;;;;;;2.10;1.77;;;8.60;82.50;;;;;;5060244;28;20060;-67
2023/11/13 05:40:45;;;;;;;2.97;2.05;;;8.60;82.50;;;;;;5046642;28;20079;-67
2023/11/13 05:43:12;;;;;;;5.00;2.53;;;8.60;82.50;;;;;;5053042;28;20044;-67
2023/11/13 05:45:37;;;;;;;7.70;3.03;;;8.60;82.60;;;;;;5065718;28;20332;-67
2023/11/13 05:48:07;;;;;;;4.05;2.72;;;8.60;82.70;;;;;;5058771;28;20043;-67
2023/11/13 05:50:33;;;;;;;4.45;2.45;;;8.70;82.90;;;;;;5028645;28;20017;-67
2023/11/13 05:52:58;;;;;;;2.83;1.98;;;8.60;83.00;;;;;;5049713;28;20052;-67
2023/11/13 05:55:24;;;;;;;2.58;2.15;;;8.70;83.00;;;;;;5052544;28;20048;-67
2023/11/13 05:57:51;;;;;;;4.40;2.65;;;8.70;83.00;;;;;;5059399;28;20914;-67
2023/11/13 06:00:18;;;;;;;4.82;2.60;;;8.70;83.00;;;;;;5065704;28;20060;-67
2023/11/13 06:02:48;;;;;;;3.28;2.03;;;8.70;83.00;;;;;;5068609;28;20029;-67
2023/11/13 06:05:15;;;;;;;8.82;3.00;;;8.70;83.10;;;;;;5063407;28;20048;-67
2023/11/13 06:07:41;;;;;;;3.90;2.63;;;8.70;83.20;;;;;;5065616;28;20469;-67
2023/11/13 06:10:10;;;;;;;2.92;2.53;;;8.70;83.20;;;;;;5067182;28;20021;-68
2023/11/13 06:12:41;;;;;;;2.35;2.05;;;8.80;83.20;;;;;;5069951;28;20079;-67
2023/11/13 06:15:10;;;;;;;3.47;2.47;;;8.80;83.30;;;;;;5060149;28;20040;-67
2023/11/13 06:17:37;;;;;;;3.75;2.35;;;8.80;83.50;;;;;;5066059;28;20032;-67
2023/11/13 06:20:03;;;;;;;3.95;2.97;;;8.80;83.50;;;;;;5067120;28;20031;-68
2023/11/13 06:22:28;;;;;;;4.07;2.53;;;8.80;83.60;;;;;;5039650;28;20032;-68
2023/11/13 06:24:54;;;;;;;4.97;2.95;;;8.80;83.50;;;;;;5036334;28;20055;-67
2023/11/13 06:27:20;;;;;;;2.65;2.00;;;8.80;83.50;;;;;;5044407;28;20028;-67
2023/11/13 06:29:46;;;;;;;5.05;3.17;;;8.80;83.70;;;;;;5039739;28;20448;-68
2023/11/13 06:32:11;;;;;;;3.85;2.60;;;8.80;83.70;;;;;;5064997;28;20423;-68
2023/11/13 06:34:37;;;;;;;2.33;1.92;;;8.80;83.80;;;;;;5045331;28;20025;-67
2023/11/13 06:37:03;;;;;;;5.55;2.97;;;8.90;83.90;;;;;;5067486;28;20077;-68
2023/11/13 06:39:28;;;;;;;4.70;3.00;;;8.90;83.90;;;;;;5040235;28;20044;-68
2023/11/13 06:41:54;;;;;;;6.82;2.92;;;8.90;83.90;;;;;;5047630;28;20024;-68
2023/11/13 06:44:20;;;;;;;8.73;3.13;;;8.90;84.00;;;;;;5043541;28;20086;-68
2023/11/13 06:46:46;;;;;;;4.47;3.42;;;8.90;84.00;;;;;;5033647;28;20037;-68
2023/11/13 06:49:13;;;;;;;7.13;3.20;;;8.90;84.20;;;;;;5045388;28;20545;-68
2023/11/13 06:51:39;;;;;;;4.68;3.28;;;8.90;84.30;;;;;;5069547;28;20024;-68
2023/11/13 06:54:07;;;;;;;4.97;3.17;;;8.90;84.30;;;;;;5059358;28;20021;-68
2023/11/13 06:56:34;;;;;;;6.13;3.33;;;8.90;84.40;;;;;;5063790;28;20478;-68
2023/11/13 06:59:00;;;;;;;6.53;4.07;;;8.90;84.40;;;;;;5050418;28;20538;-68
2023/11/13 07:01:26;;;;;;;5.20;3.60;;;9.00;84.70;;;;;;5049453;28;20035;-68
2023/11/13 07:03:52;;;;;;;4.43;3.00;;;9.00;84.70;;;;;;5046756;28;20123;-68
2023/11/13 07:06:18;;;;;;;4.43;3.30;;;9.00;84.70;;;;;;5068463;28;20039;-68
2023/11/13 07:08:43;;;;;;;5.15;3.35;;;9.00;84.80;;;;;;5061962;28;20075;-68
2023/11/13 07:11:11;;;;;;;4.53;3.55;;;9.00;84.70;;;;;;5058156;28;20043;-68
2023/11/13 07:13:39;;;;;;;4.78;3.17;;;9.10;84.70;;;;;;5039088;28;20039;-68
2023/11/13 07:16:07;;;;;;;6.13;3.33;;;9.10;84.60;;;;;;5065122;28;20115;-68
2023/11/13 07:18:33;;;;;;;4.57;3.03;;;9.20;84.50;;;;;;5062490;28;20122;-68
2023/11/13 07:21:01;;;;;;;3.28;2.58;;;9.20;84.50;;;;;;5061972;28;20096;-68
2023/11/13 07:23:28;;;;;;;5.65;3.60;;;9.20;84.50;;;;;;5037183;28;20086;-68
2023/11/13 07:25:55;;;;;;;8.75;3.47;;;9.30;84.40;;;;;;5052512;28;20021;-68
2023/11/13 07:28:21;;;;;;;5.93;3.53;;;9.30;84.50;;;;;;5047033;28;20533;-68
2023/11/13 07:30:47;;;;;;;5.70;3.15;;;9.30;84.50;;;;;;5042543;28;20021;-63
2023/11/13 07:33:13;;;;;;;3.20;2.03;;;9.30;84.50;;;;;;5062929;28;20115;-68
2023/11/13 07:35:40;;;;;;;34.50;3.60;;;9.30;84.40;;;;;;5063293;28;20795;-68
2023/11/13 07:38:09;;;;;;;3.83;2.78;;;9.30;84.40;;;;;;5056904;28;20492;-68
2023/11/13 07:40:36;;;;;;;5.20;3.53;;;9.30;84.50;;;;;;5054889;28;20061;-68
2023/11/13 07:43:02;;;;;;;6.28;2.90;;;9.40;84.50;;;;;;5026579;28;20044;-68
2023/11/13 07:45:28;;;;;;;3.55;2.50;;;9.40;84.50;;;;;;5045578;28;20447;-68
2023/11/13 07:47:56;;;;;;;6.78;3.70;;;9.40;84.50;;;;;;5060932;28;21309;-68
2023/11/13 07:50:23;;;;;;;3.65;2.65;;;9.50;84.50;;;;;;5052542;28;20083;-63
2023/11/13 07:52:50;;;;;;;4.32;2.80;;;9.50;84.50;;;;;;5067025;28;20050;-63
2023/11/13 07:55:18;;;;;;;4.55;2.58;;;9.50;84.50;;;;;;5062990;28;20021;-63
2023/11/13 07:57:44;;;;;;;4.03;2.90;;;9.50;84.50;;;;;;5059953;28;20032;-63
2023/11/13 08:00:11;;;;;;;3.47;2.40;;;9.50;84.50;;;;;;5058906;28;20037;-68
2023/11/13 08:02:40;;;;;;;4.20;2.78;;;9.60;84.50;;;;;;5062158;28;20043;-67
2023/11/13 08:05:11;;;;;;;4.05;2.67;;;9.60;84.50;;;;;;5058582;28;20047;-68
2023/11/13 08:07:40;;;;;;;3.85;2.20;;;9.60;84.40;;;;;;5060286;28;20040;-64
2023/11/13 08:10:14;;;;;;;2.63;2.42;;;9.60;84.40;;;;;;5062519;28;20017;-63
2023/11/13 08:12:43;;;;;;;3.72;2.42;;;9.60;84.40;;;;;;5041070;28;20091;-64
2023/11/13 08:15:13;;;;;;;3.30;1.90;;;9.70;84.40;;;;;;5059145;28;20025;-64
2023/11/13 08:17:44;;;;;;;6.25;3.35;;;9.70;84.40;;;;;;5061948;28;20032;-64
2023/11/13 08:20:14;;;;;;;2.15;1.67;;;9.70;84.40;;;;;;5059360;28;20029;-64
2023/11/13 08:22:41;;;;;;;4.03;2.72;;;9.70;84.40;;;;;;5052340;28;20036;-64
2023/11/13 08:25:11;;;;;;;3.67;2.45;;;9.70;84.40;;;;;;5056821;28;20048;-63
2023/11/13 08:27:44;;;;;;;5.22;2.47;;;9.70;85.00;;;;;;5055358;28;20131;-62
2023/11/13 08:30:14;;;;;;;4.93;2.03;;;9.80;84.40;;;;;;5060559;28;20070;-64
2023/11/13 08:32:40;;;;;;;2.78;2.13;;;9.80;84.30;;;;;;5057457;28;20505;-67
2023/11/13 08:35:12;;;;;;;1.88;1.63;;;9.80;84.30;;;;;;5037878;28;20021;-68
2023/11/13 08:37:38;;;;;;;;;;;9.80;84.40;;;;;;5024624;28;20043;-63
2023/11/13 08:40:06;;;;;;;7.60;2.67;;;9.90;84.40;;;;;;5057579;28;20323;-66
2023/11/13 08:42:31;;;;;;;4.05;2.47;;;9.80;84.30;;;;;;5059859;28;20059;-67
2023/11/13 08:44:57;;;;;;;2.28;2.08;;;9.90;84.30;;;;;;5055914;28;20049;-67
2023/11/13 08:47:23;;;;;;;3.17;1.90;;;9.90;84.30;;;;;;5059324;28;20478;-68
2023/11/13 08:49:49;;;;;;;2.17;1.98;;;9.90;84.40;;;;;;5042637;28;20025;-68
2023/11/13 08:52:15;;;;;;;5.07;2.08;;;10.00;84.40;;;;;;5061063;28;20028;-63
2023/11/13 08:54:40;;;;;;;3.45;2.65;;;10.00;84.50;;;;;;5061431;28;20397;-63
2023/11/13 08:57:11;;;;;;;1.80;1.48;;;10.00;84.50;;;;;;5064332;28;20050;-63
2023/11/13 08:59:38;;;;;;;2.05;1.80;;;10.10;84.50;;;;;;5069023;28;20102;-63
2023/11/13 09:02:05;;;;;;;2.75;1.60;;;10.10;84.50;;;;;;5063152;28;20107;-63
2023/11/13 09:04:34;;;;;;;2.35;1.80;;;10.10;84.50;;;;;;5067341;28;20059;-63
2023/11/13 09:07:01;;;;;;;3.33;1.75;;;10.10;84.50;;;;;;5068546;28;20028;-63
2023/11/13 09:09:26;;;;;;;1.58;1.48;;;10.20;84.40;;;;;;5066570;28;20112;-64
2023/11/13 09:11:53;;;;;;;2.28;1.52;;;10.20;84.40;;;;;;5057746;28;20544;-63
2023/11/13 09:14:22;;;;;;;4.22;1.88;;;10.20;84.30;;;;;;5043060;28;20025;-63
2023/11/13 09:16:48;;;;;;;1.92;1.77;;;10.30;84.40;;;;;;5068333;28;20032;-63
2023/11/13 09:19:13;;;;;;;2.15;1.27;;;10.30;84.40;;;;;;5061490;28;20452;-67
2023/11/13 09:21:39;;;;;;;2.33;1.52;;;10.30;84.30;;;;;;5069639;28;20043;-68
2023/11/13 09:24:09;;;;;;;2.10;1.45;;;10.40;84.40;;;;;;5057140;28;20044;-68
2023/11/13 09:26:35;;;;;;;5.22;1.95;;;10.40;84.40;;;;;;5067167;28;20459;-68
2023/11/13 09:29:01;;;;;;;3.72;2.10;;;10.40;84.40;;;;;;5067772;28;20025;-68
2023/11/13 09:31:27;;;;;;;2.50;1.58;;;10.50;84.40;;;;;;5063242;28;20095;-68
2023/11/13 09:33:53;;;;;;;3.20;1.52;;;10.50;84.40;;;;;;5067085;28;20473;-68
2023/11/13 09:36:19;;;;;;;3.47;2.08;;;10.60;84.50;;;;;;5061912;28;20033;-68
2023/11/13 09:38:44;;;;;;;3.20;1.67;;;10.60;84.60;;;;;;5065662;28;20036;-68
2023/11/13 09:41:11;;;;;;;3.33;1.73;;;10.70;84.60;;;;;;5067831;28;20049;-68
2023/11/13 09:43:39;;;;;;;4.00;2.28;;;10.70;84.90;;;;;;5060160;28;20376;-68
2023/11/13 09:46:08;;;;;;;2.72;1.88;;;10.70;85.60;;;;;;5060345;28;20101;-68
2023/11/13 09:48:45;;;;;;;1.98;1.67;;;10.80;85.40;;;;;;5060806;28;20032;-68
2023/11/13 09:51:17;;;;;;;2.85;1.98;;;10.80;85.40;;;;;;5042122;28;20118;-63
2023/11/13 09:53:44;;;;;;;2.83;1.70;;;10.90;85.30;;;;;;5061252;28;20124;-63
2023/11/13 09:56:15;;;;;;;2.17;1.40;;;10.90;85.30;;;;;;5059052;28;20021;-64
2023/11/13 09:58:41;;;;;;;3.75;1.80;;;11.00;85.20;;;;;;5043502;28;20036;-63
2023/11/13 10:01:10;;;;;;;5.72;1.88;;;11.00;86.40;;;;;;5066874;28;20489;-63
2023/11/13 10:03:40;;;;;;;6.75;2.35;;;11.10;86.20;;;;;;5060835;28;20321;-63
2023/11/13 10:06:10;;;;;;;4.88;1.67;;;11.10;86.20;;;;;;5042362;28;20463;-63
2023/11/13 10:08:44;;;;;;;5.72;1.98;;;11.20;86.20;;;;;;5059797;28;20143;-63
2023/11/13 10:11:11;;;;;;;1.67;1.42;;;11.20;86.10;;;;;;5062923;28;20031;-64
2023/11/13 10:13:36;;;;;;;4.00;1.60;;;11.20;86.40;;;;;;5052515;28;20130;-63
2023/11/13 10:16:22;;;;;;;2.88;1.38;;;11.30;86.30;;;;;;5063888;28;20361;-63
2023/11/13 10:18:49;;;;;;;1.77;0.77;;;11.40;85.90;;;;;;5055241;28;20541;-63
2023/11/13 10:21:33;;;;;;;2.40;1.17;;;11.40;86.30;;;;;;5067928;28;20111;-63
2023/11/13 10:24:23;;;;;;;4.18;1.27;;;11.40;87.60;;;;;;5063464;28;20032;-63
2023/11/13 10:26:50;;;;;;;1.63;0.93;;;11.40;86.90;;;;;;5060203;28;20028;-63
2023/11/13 10:29:32;;;;;;;2.67;1.55;;;11.40;87.00;;;;;;5057763;28;20466;-63
2023/11/13 10:31:59;;;;;;;1.55;1.25;;;11.40;87.90;;;;;;5067939;28;20461;-64
2023/11/13 10:34:43;;;;;;;1.50;0.60;;;11.50;87.70;;;;;;5061960;28;20047;-63
2023/11/13 10:37:15;;;;;;;2.08;0.85;;;11.50;88.20;;;;;;5025715;28;20539;-63
2023/11/13 10:39:45;;;;;;;0.90;0.85;;;11.50;87.60;;;;;;5054159;28;20028;-63
2023/11/13 10:42:25;;;;;;;2.08;0.77;;;11.50;88.00;;;;;;5058923;28;20305;-63
2023/11/13 10:44:55;;;;;;;1.48;1.00;;;11.60;87.90;;;;;;5060705;28;20091;-63
2023/11/13 10:47:30;;;;;;;1.15;0.77;;;11.60;87.80;;;;;;5055330;28;20118;-63
2023/11/13 10:49:58;;;;;;;1.48;0.88;;;11.60;87.70;;;;;;5063308;28;20102;-63
2023/11/13 10:52:27;;;;;;;1.23;0.75;;;11.60;87.60;;;;;;5065500;28;20033;-63
2023/11/13 10:55:04;;;;;;;0.90;0.75;;;11.70;87.50;;;;;;5059461;28;20115;-63
2023/11/13 10:57:29;;;;;;;0.82;0.52;;;11.70;87.50;;;;;;5036847;28;20384;-68
2023/11/13 10:59:55;;;;;;;2.47;0.80;;;11.60;87.70;;;;;;5064276;28;20029;-68
2023/11/13 11:02:33;;;;;;;0.88;0.50;;;11.60;87.60;;;;;;5064897;28;20029;-68
2023/11/13 11:05:00;;;;;;;0.40;0.32;;;11.70;87.70;;;;;;5067790;28;20041;-68
2023/11/13 11:07:27;;;;;;;0.50;0.50;;;11.70;87.60;;;;;;5059487;28;20021;-67
2023/11/13 11:09:59;;;;;;;0.40;0.40;;;11.70;87.60;;;;;;5059959;28;20032;-68
2023/11/13 11:12:53;;;;;;;;;;;11.70;87.60;;;;;;5067188;28;20020;-68
2023/11/13 11:15:44;;;;;;;2.85;0.70;;;11.70;87.80;;;;;;5056527;28;20024;-63
2023/11/13 11:18:32;;;;;;;0.50;0.50;;;11.70;88.00;;;;;;5055107;28;20025;-68
2023/11/13 11:21:40;;;;;;;0.60;0.60;;;11.70;88.00;;;;;;5060769;28;20036;-68
2023/11/13 11:24:30;;;;;;;2.35;0.57;;;11.70;88.50;;;;;;5063399;28;20028;-68
2023/11/13 11:27:00;;;;;;;0.77;0.52;;;11.70;88.70;;;;;;5041169;28;20032;-68
2023/11/13 11:29:36;;;;;;;0.28;0.28;;;11.70;88.70;;;;;;5058915;28;20029;-68
2023/11/13 11:32:13;;;;;;;0.43;0.25;;;11.70;88.60;;;;;;5043110;28;20372;-68
2023/11/13 11:34:44;;;;;;;0.88;0.40;;;11.70;88.40;;;;;;5061977;28;20024;-68
2023/11/13 11:37:15;;;;;;;0.50;0.50;;;11.80;88.40;;;;;;5042427;28;20065;-68
2023/11/13 11:39:51;;;;;;;1.42;0.60;;;11.80;88.30;;;;;;5058951;28;20055;-68
2023/11/13 11:42:21;;;;;;;0.52;0.50;;;11.80;88.20;;;;;;5058944;28;20501;-67
2023/11/13 11:45:02;;;;;;;0.40;0.40;;;11.90;88.20;;;;;;5054503;28;20401;-67
2023/11/13 11:47:28;;;;;;;2.30;0.70;;;11.90;88.30;;;;;;5062455;28;20440;-68
2023/11/13 11:50:03;;;;;;;0.75;0.52;;;11.90;88.30;;;;;;5060981;28;20021;-67
2023/11/13 11:53:20;;;;;;;2.65;0.90;;;11.90;88.30;;;;;;5060160;28;20078;-67
2023/11/13 11:55:38;;;;;;;1.20;0.70;;;11.90;88.10;;;;;;5053242;28;20421;-67
2023/11/13 11:58:04;;;;;;;1.15;0.68;;;11.90;88.10;;;;;;5062364;28;20025;-67
2023/11/13 12:00:31;;;;;;;0.60;0.50;;;12.00;88.00;;;;;;5067368;28;20158;-67
2023/11/13 12:02:56;;;;;;;1.00;0.98;;;12.00;87.90;;;;;;5067065;28;20425;-67
2023/11/13 12:05:23;;;;;;;2.40;1.40;;;12.00;88.10;;;;;;5061250;28;20107;-67
2023/11/13 12:07:55;;;;;;;0.93;0.60;;;12.00;88.30;;;;;;5063655;28;20048;-67
2023/11/13 12:10:21;;;;;;;;;;;12.10;88.30;;;;;;5067222;28;20033;-67
2023/11/13 12:12:48;;;;;;;1.10;0.60;;;12.10;88.10;;;;;;5063676;28;20054;-67
2023/11/13 12:15:14;;;;;;;1.75;0.88;;;12.10;88.10;;;;;;5059162;28;20024;-67
2023/11/13 12:17:41;;;;;;;1.45;0.73;;;12.20;88.00;;;;;;5061046;28;20114;-68
2023/11/13 12:20:09;;;;;;;0.60;0.60;;;12.20;87.90;;;;;;5059529;28;20108;-67
2023/11/13 12:22:35;;;;;;;3.13;0.70;;;12.20;87.80;;;;;;5059787;28;20079;-67
2023/11/13 12:25:04;;;;;;;1.33;1.00;;;12.30;87.80;;;;;;5056101;28;20029;-67
2023/11/13 12:27:31;;;;;;;2.92;1.45;;;12.30;87.90;;;;;;5060178;28;20475;-67
2023/11/13 12:30:07;;;;;;;1.30;0.95;;;12.30;87.90;;;;;;5058866;28;20025;-67
2023/11/13 12:32:33;;;;;;;1.77;1.08;;;12.40;88.40;;;;;;5049568;28;20034;-67
2023/11/13 12:35:00;;;;;;;2.65;1.10;;;12.40;88.10;;;;;;5046290;28;20362;-63
2023/11/13 12:37:27;;;;;;;4.47;1.23;;;12.50;88.60;;;;;;5046326;28;20045;-63
2023/11/13 12:40:01;;;;;;;3.83;1.52;;;12.60;88.80;;;;;;5044164;28;20080;-63
2023/11/13 12:42:28;;;;;;;2.97;1.13;;;12.70;90.00;;;;;;5067469;28;20400;-67
2023/11/13 12:44:55;;;;;;;3.70;1.40;;;12.70;89.80;;;;;;5062482;28;20124;-67
2023/11/13 12:47:22;;;;;;;0.93;0.90;;;12.80;89.60;;;;;;5045688;28;20697;-67
2023/11/13 12:49:49;;;;;;;10.18;1.77;;;12.90;89.50;;;;;;5065198;28;20044;-67
2023/11/13 12:52:16;;;;;;;6.15;1.95;;;12.90;90.00;;;;;;5043126;28;20035;-67
2023/11/13 12:54:48;;;;;;;4.45;1.05;;;13.10;90.20;;;;;;5060778;28;20464;-67
2023/11/13 12:57:15;;;;;;;3.22;2.00;;;13.10;90.20;;;;;;5045230;28;20116;-67
2023/11/13 12:59:45;;;;;;;2.45;1.58;;;13.20;90.60;;;;;;5042744;28;20094;-67